createdAt,value
2023-03-31T00:01:13.991Z,25.95
2023-03-31T00:03:44.830Z,26.55
2023-03-31T00:06:18.919Z,23.63
2023-03-31T00:08:51.870Z,23.35
2023-03-31T00:11:22.753Z,20.95
2023-03-31T00:13:50.426Z,21.20
2023-03-31T00:16:18.162Z,24.83
2023-03-31T00:18:56.825Z,23.20
2023-03-31T00:25:39.174Z,24.10
2023-03-31T00:28:07.292Z,21.90
2023-03-31T00:33:20.850Z,28.25
2023-03-31T00:36:00.579Z,23.90
2023-03-31T00:38:33.671Z,24.17
2023-03-31T00:41:13.308Z,25.23
2023-03-31T00:44:08.614Z,26.50
2023-03-31T00:46:55.306Z,25.33
2023-03-31T00:49:34.127Z,21.90
2023-03-31T00:52:11.610Z,27.25
2023-03-31T00:57:14.754Z,25.40
2023-03-31T01:00:14.884Z,25.00
2023-03-31T01:03:13.127Z,26.00
2023-03-31T01:05:47.733Z,24.60
2023-03-31T01:08:20.328Z,29.63
2023-03-31T01:11:51.176Z,26.58
2023-03-31T01:14:26.257Z,22.02
2023-03-31T01:17:57.424Z,25.52
2023-03-31T01:20:36.684Z,25.42
2023-03-31T01:23:41.832Z,28.17
2023-03-31T01:26:30.713Z,24.77
2023-03-31T01:29:32.185Z,30.77
2023-03-31T01:32:24.378Z,26.90
2023-03-31T01:35:22.786Z,29.83
2023-03-31T01:38:06.062Z,23.65
2023-03-31T01:40:59.230Z,24.80
2023-03-31T01:43:36.819Z,27.38
2023-03-31T01:46:29.789Z,28.23
2023-03-31T01:49:38.688Z,29.00
2023-03-31T01:52:19.221Z,26.85
2023-03-31T01:55:02.359Z,29.27
2023-03-31T01:57:35.267Z,27.58
2023-03-31T02:00:15.511Z,25.80
2023-03-31T02:02:58.335Z,26.17
2023-03-31T02:05:35.581Z,24.52
2023-03-31T02:08:24.379Z,25.50
2023-03-31T02:10:53.897Z,25.20
2023-03-31T02:13:26.031Z,25.52
2023-03-31T02:16:00.114Z,29.33
2023-03-31T02:18:40.177Z,28.20
2023-03-31T02:21:36.799Z,25.13
2023-03-31T02:27:46.041Z,26.60
2023-03-31T02:30:18.318Z,27.38
2023-03-31T02:32:47.324Z,28.45
2023-03-31T02:35:19.376Z,28.05
2023-03-31T02:37:50.063Z,26.98
2023-03-31T02:40:27.780Z,29.52
2023-03-31T02:42:57.818Z,25.75
2023-03-31T02:45:42.348Z,25.90
2023-03-31T02:48:30.549Z,25.40
2023-03-31T02:51:14.498Z,28.42
2023-03-31T02:54:28.596Z,24.80
2023-03-31T02:57:29.513Z,24.17
2023-03-31T03:00:17.650Z,24.15
2023-03-31T03:02:59.765Z,25.27
2023-03-31T03:05:51.335Z,28.05
2023-03-31T03:09:00.404Z,25.40
2023-03-31T03:15:49.938Z,25.98
2023-03-31T03:18:20.678Z,28.38
2023-03-31T03:24:31.026Z,29.20
2023-03-31T03:26:58.882Z,25.88
2023-03-31T03:29:27.421Z,28.13
2023-03-31T03:31:55.242Z,23.77
2023-03-31T03:34:25.513Z,24.38
2023-03-31T03:36:55.867Z,24.88
2023-03-31T03:39:26.833Z,25.95
2023-03-31T03:41:54.895Z,29.15
2023-03-31T03:44:25.214Z,23.95
2023-03-31T03:46:57.198Z,25.13
2023-03-31T03:49:28.207Z,25.95
2023-03-31T03:51:56.043Z,28.77
2023-03-31T03:54:26.176Z,23.02
2023-03-31T03:56:53.932Z,28.23
2023-03-31T03:59:25.886Z,25.50
2023-03-31T04:02:42.100Z,26.38
2023-03-31T04:05:10.213Z,26.08
2023-03-31T04:07:38.145Z,24.42
2023-03-31T04:13:41.231Z,24.40
2023-03-31T04:16:09.557Z,24.15
2023-03-31T04:18:51.724Z,26.17
2023-03-31T04:21:27.864Z,22.98
2023-03-31T04:24:04.738Z,23.48
2023-03-31T04:26:44.735Z,28.65
2023-03-31T04:29:22.753Z,23.42
2023-03-31T04:32:21.837Z,22.30
2023-03-31T04:35:10.138Z,21.40
2023-03-31T04:37:40.291Z,24.98
2023-03-31T04:40:13.306Z,23.27
2023-03-31T04:42:44.532Z,22.60
2023-03-31T04:45:28.730Z,22.38
2023-03-31T04:48:01.419Z,22.83
2023-03-31T04:50:32.793Z,23.20
2023-03-31T04:53:00.893Z,23.52
2023-03-31T04:55:37.596Z,22.70
2023-03-31T04:58:07.858Z,22.55
2023-03-31T05:00:35.553Z,24.75
2023-03-31T05:03:03.512Z,26.58
2023-03-31T05:05:31.209Z,23.83
2023-03-31T05:08:00.863Z,23.17
2023-03-31T05:10:29.299Z,24.90
2023-03-31T05:12:58.137Z,24.27
2023-03-31T05:15:26.065Z,25.58
2023-03-31T05:17:55.268Z,23.80
2023-03-31T05:20:23.100Z,29.77
2023-03-31T05:22:51.193Z,22.75
2023-03-31T05:25:22.588Z,22.33
2023-03-31T05:27:51.199Z,26.23
2023-03-31T05:30:19.831Z,25.00
2023-03-31T05:32:48.376Z,26.00
2023-03-31T05:39:00.984Z,26.05
2023-03-31T05:41:28.860Z,26.88
2023-03-31T05:43:56.703Z,28.40
2023-03-31T05:46:26.858Z,25.10
2023-03-31T05:49:09.757Z,25.13
2023-03-31T05:51:42.361Z,24.73
2023-03-31T05:54:10.088Z,24.33
2023-03-31T05:56:37.634Z,28.05
2023-03-31T05:59:05.593Z,23.75
2023-03-31T06:01:59.690Z,29.38
2023-03-31T06:04:46.278Z,32.63
2023-03-31T06:07:16.891Z,29.65
2023-03-31T06:09:47.941Z,29.20
2023-03-31T06:12:32.509Z,28.85
2023-03-31T06:15:06.150Z,32.13
2023-03-31T06:20:57.041Z,26.90
2023-03-31T06:23:26.199Z,28.73
2023-03-31T06:25:54.346Z,24.23
2023-03-31T06:28:27.318Z,27.10
2023-03-31T06:31:01.603Z,28.50
2023-03-31T06:33:29.230Z,27.63
2023-03-31T06:35:57.923Z,28.55
2023-03-31T06:38:26.274Z,27.75
2023-03-31T06:41:13.615Z,27.02
2023-03-31T06:43:41.420Z,29.00
2023-03-31T06:46:10.054Z,29.73
2023-03-31T06:48:52.451Z,31.40
2023-03-31T06:51:20.592Z,29.00
2023-03-31T06:53:48.137Z,27.00
2023-03-31T06:56:16.278Z,27.65
2023-03-31T06:58:43.939Z,27.30
2023-03-31T07:01:11.969Z,28.30
2023-03-31T07:03:39.786Z,27.80
2023-03-31T07:06:07.588Z,29.88
2023-03-31T07:08:36.311Z,31.70
2023-03-31T07:11:04.340Z,30.02
2023-03-31T07:13:32.491Z,30.80
2023-03-31T07:16:00.312Z,26.15
2023-03-31T07:18:34.310Z,26.50
2023-03-31T07:21:05.792Z,28.33
2023-03-31T07:23:36.347Z,26.80
2023-03-31T07:26:07.912Z,30.10
2023-03-31T07:30:26.915Z,29.08
2023-03-31T07:32:24.165Z,28.58
2023-03-31T07:34:52.840Z,28.70
2023-03-31T07:37:20.534Z,26.52
2023-03-31T07:39:48.094Z,25.27
2023-03-31T07:42:16.115Z,28.25
2023-03-31T07:44:43.791Z,26.30
2023-03-31T07:47:11.402Z,26.25
2023-03-31T07:50:05.100Z,31.20
2023-03-31T07:52:32.652Z,31.05
2023-03-31T07:55:00.358Z,27.90
2023-03-31T07:57:46.368Z,27.27
2023-03-31T08:00:18.635Z,26.50
2023-03-31T08:02:47.633Z,28.77
2023-03-31T08:05:18.576Z,30.35
2023-03-31T08:07:53.435Z,29.60
2023-03-31T08:10:24.999Z,31.05
2023-03-31T08:12:53.934Z,25.58
2023-03-31T08:15:22.140Z,30.77
2023-03-31T08:17:52.152Z,29.23
2023-03-31T08:20:30.230Z,29.63
2023-03-31T08:22:57.982Z,27.13
2023-03-31T08:25:27.777Z,24.55
2023-03-31T08:28:02.363Z,30.67
2023-03-31T08:30:38.147Z,24.83
2023-03-31T08:33:14.498Z,27.42
2023-03-31T08:36:06.078Z,25.65
2023-03-31T08:40:25.271Z,27.67
2023-03-31T08:50:03.938Z,25.05
2023-03-31T09:01:05.249Z,27.05
2023-03-31T09:03:53.419Z,27.15
2023-03-31T09:06:43.659Z,31.80
2023-03-31T09:09:26.312Z,34.00
2023-03-31T09:11:56.916Z,30.98
2023-03-31T09:15:38.427Z,33.30
2023-03-31T09:18:32.545Z,29.35
2023-03-31T09:21:10.650Z,30.20
2023-03-31T09:23:59.989Z,30.70
2023-03-31T09:26:34.593Z,33.35
2023-03-31T09:29:35.447Z,28.55
2023-03-31T09:32:18.223Z,32.92
2023-03-31T09:34:50.542Z,31.08
2023-03-31T09:37:18.440Z,30.42
2023-03-31T09:39:46.220Z,31.35
2023-03-31T09:42:14.590Z,38.03
2023-03-31T09:44:47.486Z,32.42
2023-03-31T09:48:09.427Z,34.15
2023-03-31T09:50:45.130Z,32.28
2023-03-31T09:53:34.739Z,31.17
2023-03-31T09:56:05.495Z,29.55
2023-03-31T09:58:41.703Z,31.48
2023-03-31T10:01:12.089Z,31.60
2023-03-31T10:03:54.215Z,32.03
2023-03-31T10:06:23.949Z,30.58
2023-03-31T10:09:44.094Z,32.83
2023-03-31T10:12:23.014Z,32.45
2023-03-31T10:14:52.837Z,36.53
2023-03-31T10:17:27.803Z,36.65
2023-03-31T10:19:59.213Z,31.75
2023-03-31T10:22:30.680Z,30.33
2023-03-31T10:25:21.983Z,34.08
2023-03-31T10:27:55.983Z,30.83
2023-03-31T10:30:28.750Z,32.92
2023-03-31T10:32:56.995Z,29.55
2023-03-31T10:35:34.950Z,30.50
2023-03-31T10:38:06.699Z,29.33
2023-03-31T10:40:36.538Z,32.25
2023-03-31T10:43:20.498Z,33.22
2023-03-31T10:45:56.347Z,29.65
2023-03-31T10:48:23.989Z,31.17
2023-03-31T10:50:51.760Z,28.08
2023-03-31T10:53:20.109Z,30.15
2023-03-31T10:56:13.858Z,26.52
2023-03-31T10:58:52.088Z,25.33
2023-03-31T11:01:47.821Z,23.42
2023-03-31T11:04:44.145Z,26.83
2023-03-31T11:07:14.289Z,25.27
2023-03-31T11:09:55.813Z,25.42
2023-03-31T11:12:57.451Z,25.95
2023-03-31T11:15:42.647Z,25.38
2023-03-31T11:18:28.733Z,25.15
2023-03-31T11:21:02.204Z,24.73
2023-03-31T11:24:18.050Z,26.40
2023-03-31T11:31:04.725Z,23.35
2023-03-31T11:33:56.087Z,22.77
2023-03-31T11:36:44.993Z,26.30
2023-03-31T11:39:37.178Z,23.27
2023-03-31T11:45:38.994Z,24.80
2023-03-31T11:48:31.931Z,21.20
2023-03-31T11:55:26.300Z,24.33
2023-03-31T11:58:46.858Z,24.50
2023-03-31T12:01:35.948Z,21.20
2023-03-31T12:11:49.306Z,18.38
2023-03-31T12:23:07.760Z,19.73
2023-03-31T12:25:59.143Z,16.38
2023-03-31T12:29:16.931Z,18.55
2023-03-31T12:35:04.523Z,13.48
2023-03-31T12:42:16.193Z,15.18
2023-03-31T12:45:18.293Z,16.08
2023-03-31T12:48:05.698Z,16.48
2023-03-31T12:50:36.612Z,18.42
2023-03-31T12:57:45.723Z,21.70
2023-03-31T13:04:18.121Z,16.58
2023-03-31T13:06:57.197Z,14.52
2023-03-31T13:10:40.290Z,21.23
2023-03-31T13:13:16.333Z,20.25
2023-03-31T13:15:56.554Z,16.83
2023-03-31T13:21:56.361Z,19.30
2023-03-31T13:24:51.257Z,15.05
2023-03-31T13:32:00.499Z,15.93
2023-03-31T13:34:36.090Z,17.42
2023-03-31T13:37:19.879Z,16.15
2023-03-31T13:40:15.133Z,14.10
2023-03-31T13:43:17.623Z,14.68
2023-03-31T13:46:59.526Z,11.88
2023-03-31T13:49:48.371Z,12.85
2023-03-31T13:52:35.798Z,11.93
2023-03-31T13:55:46.801Z,14.63
2023-03-31T13:59:01.483Z,14.00
2023-03-31T14:01:49.068Z,10.45
2023-03-31T14:04:34.520Z,13.23
2023-03-31T14:07:18.271Z,12.60
2023-03-31T14:09:55.039Z,13.13
2023-03-31T14:16:28.474Z,11.15
2023-03-31T14:22:02.071Z,14.13
2023-03-31T14:24:37.268Z,14.02
2023-03-31T14:27:25.604Z,13.70
2023-03-31T14:29:59.964Z,14.30
2023-03-31T14:33:03.873Z,16.05
2023-03-31T14:35:38.958Z,17.58
2023-03-31T14:38:13.366Z,15.00
2023-03-31T14:40:58.484Z,17.75
2023-03-31T14:43:29.456Z,17.05
2023-03-31T14:46:10.047Z,17.40
2023-03-31T14:48:50.391Z,15.43
2023-03-31T14:51:30.684Z,19.02
2023-03-31T14:53:59.482Z,15.88
2023-03-31T14:56:36.316Z,15.27
2023-03-31T14:59:06.504Z,17.98
2023-03-31T15:01:37.805Z,16.65
2023-03-31T15:04:12.831Z,18.77
2023-03-31T15:06:48.065Z,16.55
2023-03-31T15:09:28.493Z,16.67
2023-03-31T15:12:13.733Z,15.32
2023-03-31T15:14:46.962Z,14.65
2023-03-31T15:17:38.053Z,15.68
2023-03-31T15:20:24.456Z,17.25
2023-03-31T15:22:52.537Z,16.58
2023-03-31T15:25:21.866Z,16.75
2023-03-31T15:27:56.828Z,13.75
2023-03-31T15:30:27.187Z,18.63
2023-03-31T15:33:01.510Z,14.68
2023-03-31T15:35:39.050Z,14.65
2023-03-31T15:38:06.892Z,14.50
2023-03-31T15:40:41.056Z,15.48
2023-03-31T15:43:25.015Z,15.38
2023-03-31T15:45:54.582Z,16.65
2023-03-31T15:48:28.763Z,14.00
2023-03-31T15:51:07.764Z,15.13
2023-03-31T15:53:38.625Z,13.52
2023-03-31T16:08:11.034Z,35.30
2023-03-31T16:10:41.103Z,30.67
2023-03-31T16:13:10.937Z,31.60
2023-03-31T16:15:47.113Z,18.60
2023-03-31T16:18:35.077Z,21.00
2023-03-31T16:21:05.810Z,19.92
2023-03-31T16:23:38.841Z,20.10
2023-03-31T16:26:16.420Z,16.02
2023-03-31T16:29:18.474Z,17.55
2023-03-31T16:32:13.255Z,17.50
2023-03-31T16:35:05.343Z,16.02
2023-03-31T16:37:33.711Z,16.08
2023-03-31T16:40:01.820Z,14.13
2023-03-31T16:42:29.415Z,15.77
2023-03-31T16:45:13.039Z,16.83
2023-03-31T16:49:17.840Z,13.65
2023-03-31T16:55:19.284Z,16.60
2023-03-31T16:58:16.380Z,19.83
2023-03-31T17:00:47.840Z,18.58
2023-03-31T17:03:59.212Z,21.05
2023-03-31T17:06:29.857Z,19.10
2023-03-31T17:08:57.592Z,25.17
2023-03-31T17:11:25.101Z,28.02
2023-03-31T17:13:54.727Z,28.73
2023-03-31T17:16:29.808Z,25.38
2023-03-31T17:19:09.932Z,26.45
2023-03-31T17:21:37.959Z,23.73
2023-03-31T17:26:37.692Z,27.08
2023-03-31T17:29:05.920Z,24.20
2023-03-31T17:31:35.773Z,24.80
2023-03-31T17:34:04.390Z,24.65
2023-03-31T17:36:31.999Z,25.65
2023-03-31T17:39:00.449Z,25.60
2023-03-31T17:41:29.803Z,22.10
2023-03-31T17:43:58.124Z,26.48
2023-03-31T17:46:37.276Z,25.98
2023-03-31T17:49:05.124Z,22.02
2023-03-31T17:51:38.118Z,26.95
2023-03-31T17:54:05.719Z,27.38
2023-03-31T17:56:33.278Z,27.73
2023-03-31T17:59:00.860Z,26.48
2023-03-31T18:01:54.145Z,26.67
2023-03-31T18:04:32.747Z,26.40
2023-03-31T18:07:08.135Z,26.33
2023-03-31T18:09:41.341Z,30.95
2023-03-31T18:17:31.556Z,27.77
2023-03-31T18:24:14.966Z,24.92
2023-03-31T19:20:44.652Z,34.08
2023-03-31T19:29:25.300Z,28.23
2023-03-31T19:31:56.283Z,32.13
2023-03-31T19:35:56.202Z,28.45
2023-03-31T20:58:01.841Z,38.22
2023-03-31T21:09:37.933Z,33.40
2023-03-31T21:13:46.952Z,30.55
2023-03-31T21:30:06.848Z,50.58
2023-03-31T21:37:19.902Z,45.42
2023-03-31T21:45:18.596Z,40.45
2023-03-31T21:49:12.852Z,35.10
2023-03-31T21:52:48.661Z,35.85
2023-03-31T22:07:39.024Z,31.92
2023-03-31T22:17:59.834Z,30.73
2023-03-31T22:21:19.515Z,34.78
2023-03-31T22:25:11.810Z,34.40
2023-03-31T22:34:14.228Z,36.42
2023-03-31T22:40:56.502Z,30.67
2023-03-31T22:43:53.946Z,31.10
2023-03-31T22:46:24.346Z,25.58
2023-03-31T23:01:59.999Z,32.88
2023-03-31T23:04:42.000Z,36.30
2023-03-31T23:07:23.394Z,34.00
2023-03-31T23:12:41.544Z,34.00
2023-03-31T23:14:53.040Z,81.47
2023-03-31T23:17:56.973Z,67.95
2023-03-31T23:21:35.852Z,80.15
2023-03-31T23:25:13.060Z,67.00
2023-03-31T23:27:52.395Z,41.17
2023-03-31T23:30:30.042Z,35.15
2023-03-31T23:33:57.348Z,31.55
2023-03-31T23:36:29.838Z,40.90
2023-03-31T23:39:12.109Z,41.58
2023-03-31T23:42:02.684Z,66.65
2023-03-31T23:44:45.222Z,73.80
2023-03-31T23:48:13.118Z,68.65
2023-03-31T23:51:07.640Z,81.15
2023-03-31T23:58:01.724Z,37.03
